sensor_id;sensor_type;location;lat;lon;timestamp;pressure;altitude;pressure_sealevel;temperature;humidity
163;BME280;3946;48.958;8.284;2023-04-25T00:02:26;99915.00;;;8.13;99.92
163;BME280;3946;48.958;8.284;2023-04-25T00:05:12;99915.28;;;8.08;100.00
163;BME280;3946;48.958;8.284;2023-04-25T00:07:59;99909.84;;;7.98;100.00
163;BME280;3946;48.958;8.284;2023-04-25T00:10:44;99911.31;;;8.02;100.00
163;BME280;3946;48.958;8.284;2023-04-25T00:13:29;99905.16;;;8.05;100.00
163;BME280;3946;48.958;8.284;2023-04-25T00:16:14;99906.06;;;8.18;100.00
163;BME280;3946;48.958;8.284;2023-04-25T00:18:59;99900.16;;;8.16;100.00
163;BME280;3946;48.958;8.284;2023-04-25T00:21:45;99894.94;;;8.03;100.00
163;BME280;3946;48.958;8.284;2023-04-25T00:24:32;99905.25;;;8.03;100.00
163;BME280;3946;48.958;8.284;2023-04-25T00:27:17;99907.56;;;7.94;100.00
163;BME280;3946;48.958;8.284;2023-04-25T00:30:03;99905.16;;;7.77;100.00
163;BME280;3946;48.958;8.284;2023-04-25T00:32:48;99901.19;;;7.71;100.00
163;BME280;3946;48.958;8.284;2023-04-25T00:35:33;99908.06;;;7.56;100.00
163;BME280;3946;48.958;8.284;2023-04-25T00:38:19;99908.56;;;7.63;100.00
163;BME280;3946;48.958;8.284;2023-04-25T00:41:06;99906.00;;;7.47;100.00
163;BME280;3946;48.958;8.284;2023-04-25T00:43:51;99906.75;;;7.49;100.00
163;BME280;3946;48.958;8.284;2023-04-25T00:46:36;99911.28;;;7.46;100.00
163;BME280;3946;48.958;8.284;2023-04-25T00:49:21;99887.19;;;7.31;100.00
163;BME280;3946;48.958;8.284;2023-04-25T00:52:06;99901.50;;;7.51;100.00
163;BME280;3946;48.958;8.284;2023-04-25T00:54:51;99891.50;;;7.60;100.00
163;BME280;3946;48.958;8.284;2023-04-25T00:57:38;99895.09;;;7.72;100.00
163;BME280;3946;48.958;8.284;2023-04-25T01:00:23;99891.78;;;7.84;100.00
163;BME280;3946;48.958;8.284;2023-04-25T01:03:08;99881.94;;;7.91;100.00
163;BME280;3946;48.958;8.284;2023-04-25T01:05:54;99880.19;;;7.91;100.00
163;BME280;3946;48.958;8.284;2023-04-25T01:08:39;99888.94;;;7.89;100.00
163;BME280;3946;48.958;8.284;2023-04-25T01:11:24;99884.88;;;7.85;100.00
163;BME280;3946;48.958;8.284;2023-04-25T01:14:11;99889.41;;;7.95;100.00
163;BME280;3946;48.958;8.284;2023-04-25T01:16:55;99879.53;;;8.02;100.00
163;BME280;3946;48.958;8.284;2023-04-25T01:19:40;99881.38;;;8.00;100.00
163;BME280;3946;48.958;8.284;2023-04-25T01:22:27;99882.84;;;8.18;100.00
163;BME280;3946;48.958;8.284;2023-04-25T01:25:11;99881.91;;;8.19;100.00
163;BME280;3946;48.958;8.284;2023-04-25T01:27:57;99874.91;;;8.21;100.00
163;BME280;3946;48.958;8.284;2023-04-25T01:30:43;99879.16;;;8.22;100.00
163;BME280;3946;48.958;8.284;2023-04-25T01:33:29;99877.69;;;8.18;100.00
163;BME280;3946;48.958;8.284;2023-04-25T01:36:14;99880.53;;;8.28;100.00
163;BME280;3946;48.958;8.284;2023-04-25T01:39:01;99877.97;;;8.42;100.00
163;BME280;3946;48.958;8.284;2023-04-25T01:41:47;99881.00;;;8.34;100.00
163;BME280;3946;48.958;8.284;2023-04-25T01:44:32;99872.81;;;8.42;100.00
163;BME280;3946;48.958;8.284;2023-04-25T01:47:17;99877.75;;;8.45;100.00
163;BME280;3946;48.958;8.284;2023-04-25T01:50:03;99879.03;;;8.52;100.00
163;BME280;3946;48.958;8.284;2023-04-25T01:52:49;99873.13;;;8.50;100.00
163;BME280;3946;48.958;8.284;2023-04-25T01:55:37;99880.88;;;8.50;100.00
163;BME280;3946;48.958;8.284;2023-04-25T01:58:28;99874.50;;;8.56;100.00
163;BME280;3946;48.958;8.284;2023-04-25T02:01:33;99879.50;;;8.59;100.00
163;BME280;3946;48.958;8.284;2023-04-25T02:04:33;99878.56;;;8.60;100.00
163;BME280;3946;48.958;8.284;2023-04-25T02:07:19;99877.59;;;8.61;100.00
163;BME280;3946;48.958;8.284;2023-04-25T02:10:09;99880.19;;;8.61;100.00
163;BME280;3946;48.958;8.284;2023-04-25T02:13:04;99883.41;;;8.64;100.00
163;BME280;3946;48.958;8.284;2023-04-25T02:16:06;99877.97;;;8.69;100.00
163;BME280;3946;48.958;8.284;2023-04-25T02:18:51;99874.38;;;8.71;99.99
163;BME280;3946;48.958;8.284;2023-04-25T02:21:37;99876.94;;;8.71;100.00
163;BME280;3946;48.958;8.284;2023-04-25T02:24:22;99872.16;;;8.65;99.24
163;BME280;3946;48.958;8.284;2023-04-25T02:27:08;99874.47;;;8.70;99.03
163;BME280;3946;48.958;8.284;2023-04-25T02:29:54;99868.66;;;8.66;98.92
163;BME280;3946;48.958;8.284;2023-04-25T02:32:39;99861.25;;;8.74;98.46
163;BME280;3946;48.958;8.284;2023-04-25T02:35:26;99855.31;;;8.60;98.22
163;BME280;3946;48.958;8.284;2023-04-25T02:38:12;99863.44;;;8.54;100.00
163;BME280;3946;48.958;8.284;2023-04-25T02:40:57;99862.44;;;8.56;100.00
163;BME280;3946;48.958;8.284;2023-04-25T02:43:43;99864.28;;;8.54;100.00
163;BME280;3946;48.958;8.284;2023-04-25T02:46:29;99870.91;;;8.58;100.00
163;BME280;3946;48.958;8.284;2023-04-25T02:49:14;99868.59;;;8.54;100.00
163;BME280;3946;48.958;8.284;2023-04-25T02:51:59;99860.69;;;8.57;100.00
163;BME280;3946;48.958;8.284;2023-04-25T02:54:44;99853.22;;;8.52;100.00
163;BME280;3946;48.958;8.284;2023-04-25T02:57:29;99858.72;;;8.60;100.00
163;BME280;3946;48.958;8.284;2023-04-25T03:00:14;99850.59;;;8.39;100.00
163;BME280;3946;48.958;8.284;2023-04-25T03:03:01;99857.69;;;8.36;100.00
163;BME280;3946;48.958;8.284;2023-04-25T03:05:46;99852.84;;;8.30;100.00
163;BME280;3946;48.958;8.284;2023-04-25T03:08:31;99857.50;;;8.39;100.00
163;BME280;3946;48.958;8.284;2023-04-25T03:11:19;99857.78;;;8.34;100.00
163;BME280;3946;48.958;8.284;2023-04-25T03:14:05;99844.41;;;8.28;100.00
163;BME280;3946;48.958;8.284;2023-04-25T03:16:50;99856.34;;;8.29;100.00
163;BME280;3946;48.958;8.284;2023-04-25T03:19:36;99853.50;;;8.48;100.00
163;BME280;3946;48.958;8.284;2023-04-25T03:22:21;99829.75;;;8.43;100.00
163;BME280;3946;48.958;8.284;2023-04-25T03:25:06;99840.25;;;8.39;100.00
163;BME280;3946;48.958;8.284;2023-04-25T03:27:52;99841.28;;;8.37;100.00
163;BME280;3946;48.958;8.284;2023-04-25T03:30:38;99844.59;;;8.25;100.00
163;BME280;3946;48.958;8.284;2023-04-25T03:33:23;99850.19;;;8.31;100.00
163;BME280;3946;48.958;8.284;2023-04-25T03:36:10;99847.19;;;8.25;100.00
163;BME280;3946;48.958;8.284;2023-04-25T03:38:56;99842.28;;;8.20;100.00
163;BME280;3946;48.958;8.284;2023-04-25T03:41:41;99840.00;;;8.16;100.00
163;BME280;3946;48.958;8.284;2023-04-25T03:44:31;99847.91;;;8.13;100.00
163;BME280;3946;48.958;8.284;2023-04-25T03:47:16;99851.97;;;8.17;100.00
163;BME280;3946;48.958;8.284;2023-04-25T03:50:01;99852.38;;;8.11;100.00
163;BME280;3946;48.958;8.284;2023-04-25T03:52:48;99843.41;;;8.16;100.00
163;BME280;3946;48.958;8.284;2023-04-25T03:55:33;99855.78;;;8.11;100.00
163;BME280;3946;48.958;8.284;2023-04-25T03:58:19;99857.97;;;8.17;100.00
163;BME280;3946;48.958;8.284;2023-04-25T04:01:05;99852.94;;;8.28;100.00
163;BME280;3946;48.958;8.284;2023-04-25T04:03:53;99841.91;;;8.26;100.00
163;BME280;3946;48.958;8.284;2023-04-25T04:06:38;99842.75;;;8.13;100.00
163;BME280;3946;48.958;8.284;2023-04-25T04:09:33;99841.31;;;8.08;100.00
163;BME280;3946;48.958;8.284;2023-04-25T04:12:22;99850.78;;;8.08;100.00
163;BME280;3946;48.958;8.284;2023-04-25T04:15:07;99851.31;;;8.13;100.00
163;BME280;3946;48.958;8.284;2023-04-25T04:17:52;99854.31;;;8.07;100.00
163;BME280;3946;48.958;8.284;2023-04-25T04:20:37;99853.06;;;8.13;100.00
163;BME280;3946;48.958;8.284;2023-04-25T04:23:24;99850.78;;;8.08;100.00
163;BME280;3946;48.958;8.284;2023-04-25T04:26:12;99861.66;;;7.99;100.00
163;BME280;3946;48.958;8.284;2023-04-25T04:29:13;99858.34;;;7.97;100.00
163;BME280;3946;48.958;8.284;2023-04-25T04:32:15;99856.03;;;8.06;100.00
163;BME280;3946;48.958;8.284;2023-04-25T04:35:01;99859.97;;;8.12;100.00
163;BME280;3946;48.958;8.284;2023-04-25T04:37:47;99858.34;;;8.11;100.00
163;BME280;3946;48.958;8.284;2023-04-25T04:40:34;99857.41;;;7.98;100.00
163;BME280;3946;48.958;8.284;2023-04-25T04:43:26;99854.22;;;7.94;100.00
163;BME280;3946;48.958;8.284;2023-04-25T04:46:12;99855.59;;;8.00;100.00
163;BME280;3946;48.958;8.284;2023-04-25T04:49:24;99860.47;;;8.04;100.00
163;BME280;3946;48.958;8.284;2023-04-25T04:52:23;99862.56;;;8.12;100.00
163;BME280;3946;48.958;8.284;2023-04-25T04:55:21;99862.28;;;8.17;100.00
163;BME280;3946;48.958;8.284;2023-04-25T04:58:15;99866.63;;;8.16;100.00
163;BME280;3946;48.958;8.284;2023-04-25T05:01:30;99867.44;;;8.17;100.00
163;BME280;3946;48.958;8.284;2023-04-25T05:04:45;99865.78;;;8.16;100.00
163;BME280;3946;48.958;8.284;2023-04-25T05:07:50;99867.44;;;8.17;100.00
163;BME280;3946;48.958;8.284;2023-04-25T05:11:02;99871.78;;;8.16;100.00
163;BME280;3946;48.958;8.284;2023-04-25T05:14:10;99873.59;;;8.28;100.00
163;BME280;3946;48.958;8.284;2023-04-25T05:17:20;99874.25;;;8.46;100.00
163;BME280;3946;48.958;8.284;2023-04-25T05:20:24;99873.72;;;8.41;100.00
163;BME280;3946;48.958;8.284;2023-04-25T05:23:35;99861.75;;;8.40;100.00
163;BME280;3946;48.958;8.284;2023-04-25T05:26:39;99865.00;;;8.56;100.00
163;BME280;3946;48.958;8.284;2023-04-25T05:29:43;99871.66;;;8.60;100.00
163;BME280;3946;48.958;8.284;2023-04-25T05:32:44;99870.69;;;8.61;100.00
163;BME280;3946;48.958;8.284;2023-04-25T05:35:31;99869.16;;;8.86;100.00
163;BME280;3946;48.958;8.284;2023-04-25T05:38:15;99865.13;;;8.94;100.00
163;BME280;3946;48.958;8.284;2023-04-25T05:41:19;99873.75;;;9.07;100.00
163;BME280;3946;48.958;8.284;2023-04-25T05:44:10;99871.38;;;9.04;100.00
163;BME280;3946;48.958;8.284;2023-04-25T05:47:18;99868.34;;;8.98;100.00
163;BME280;3946;48.958;8.284;2023-04-25T05:50:21;99876.28;;;8.95;100.00
163;BME280;3946;48.958;8.284;2023-04-25T05:53:12;99880.63;;;8.94;100.00
163;BME280;3946;48.958;8.284;2023-04-25T05:55:59;99880.66;;;8.67;100.00
163;BME280;3946;48.958;8.284;2023-04-25T05:58:45;99880.00;;;8.64;100.00
163;BME280;3946;48.958;8.284;2023-04-25T06:01:30;99887.47;;;8.68;100.00
163;BME280;3946;48.958;8.284;2023-04-25T06:04:16;99889.56;;;8.76;100.00
163;BME280;3946;48.958;8.284;2023-04-25T06:07:02;99887.91;;;9.15;100.00
163;BME280;3946;48.958;8.284;2023-04-25T06:09:47;99894.66;;;9.17;100.00
163;BME280;3946;48.958;8.284;2023-04-25T06:12:33;99894.06;;;8.87;100.00
163;BME280;3946;48.958;8.284;2023-04-25T06:15:18;99897.22;;;9.17;100.00
163;BME280;3946;48.958;8.284;2023-04-25T06:18:04;99896.34;;;8.91;100.00
163;BME280;3946;48.958;8.284;2023-04-25T06:20:51;99900.97;;;9.26;100.00
163;BME280;3946;48.958;8.284;2023-04-25T06:23:38;99903.00;;;9.08;100.00
163;BME280;3946;48.958;8.284;2023-04-25T06:26:25;99900.03;;;9.27;100.00
163;BME280;3946;48.958;8.284;2023-04-25T06:29:10;99900.09;;;9.12;100.00
163;BME280;3946;48.958;8.284;2023-04-25T06:31:55;99893.91;;;9.15;100.00
163;BME280;3946;48.958;8.284;2023-04-25T06:34:41;99905.47;;;9.09;100.00
163;BME280;3946;48.958;8.284;2023-04-25T06:37:27;99900.47;;;8.94;100.00
163;BME280;3946;48.958;8.284;2023-04-25T06:40:14;99912.09;;;9.13;100.00
163;BME280;3946;48.958;8.284;2023-04-25T06:43:01;99913.84;;;9.13;100.00
163;BME280;3946;48.958;8.284;2023-04-25T06:46:00;99909.03;;;9.21;100.00
163;BME280;3946;48.958;8.284;2023-04-25T06:48:48;99913.69;;;9.29;100.00
163;BME280;3946;48.958;8.284;2023-04-25T06:51:35;99917.19;;;9.28;100.00
163;BME280;3946;48.958;8.284;2023-04-25T06:54:20;99918.13;;;9.27;100.00
163;BME280;3946;48.958;8.284;2023-04-25T06:57:18;99921.88;;;9.35;100.00
163;BME280;3946;48.958;8.284;2023-04-25T07:00:04;99922.41;;;9.01;100.00
163;BME280;3946;48.958;8.284;2023-04-25T07:02:52;99920.31;;;8.93;100.00
163;BME280;3946;48.958;8.284;2023-04-25T07:05:37;99925.91;;;9.00;100.00
163;BME280;3946;48.958;8.284;2023-04-25T07:08:22;99932.41;;;8.93;100.00
163;BME280;3946;48.958;8.284;2023-04-25T07:11:07;99935.53;;;9.37;100.00
163;BME280;3946;48.958;8.284;2023-04-25T07:13:55;99934.44;;;9.15;100.00
163;BME280;3946;48.958;8.284;2023-04-25T07:16:40;99941.53;;;8.98;100.00
163;BME280;3946;48.958;8.284;2023-04-25T07:19:26;99939.84;;;8.97;100.00
163;BME280;3946;48.958;8.284;2023-04-25T07:22:15;99944.19;;;9.24;100.00
163;BME280;3946;48.958;8.284;2023-04-25T07:25:24;99942.22;;;8.88;100.00
163;BME280;3946;48.958;8.284;2023-04-25T07:28:49;99954.88;;;9.05;100.00
163;BME280;3946;48.958;8.284;2023-04-25T07:31:36;99952.63;;;8.86;100.00
163;BME280;3946;48.958;8.284;2023-04-25T07:34:21;99961.50;;;8.82;100.00
163;BME280;3946;48.958;8.284;2023-04-25T07:37:06;99959.97;;;8.65;100.00
163;BME280;3946;48.958;8.284;2023-04-25T07:40:01;99968.25;;;8.70;100.00
163;BME280;3946;48.958;8.284;2023-04-25T07:42:47;99974.06;;;8.74;100.00
163;BME280;3946;48.958;8.284;2023-04-25T07:45:37;99976.69;;;8.60;100.00
163;BME280;3946;48.958;8.284;2023-04-25T07:48:24;99979.38;;;8.58;100.00
163;BME280;3946;48.958;8.284;2023-04-25T07:51:10;99988.13;;;8.56;100.00
163;BME280;3946;48.958;8.284;2023-04-25T07:53:56;99993.16;;;8.71;100.00
163;BME280;3946;48.958;8.284;2023-04-25T07:56:42;99991.53;;;8.56;100.00
163;BME280;3946;48.958;8.284;2023-04-25T07:59:27;100001.84;;;8.70;100.00
163;BME280;3946;48.958;8.284;2023-04-25T08:02:13;100004.13;;;8.61;100.00
163;BME280;3946;48.958;8.284;2023-04-25T08:04:59;100003.78;;;8.67;100.00
163;BME280;3946;48.958;8.284;2023-04-25T08:07:44;100016.66;;;8.81;100.00
163;BME280;3946;48.958;8.284;2023-04-25T08:10:29;100013.50;;;9.04;100.00
163;BME280;3946;48.958;8.284;2023-04-25T08:13:14;100017.56;;;8.94;100.00
163;BME280;3946;48.958;8.284;2023-04-25T08:15:59;100020.41;;;9.04;100.00
163;BME280;3946;48.958;8.284;2023-04-25T08:18:44;100023.91;;;9.03;100.00
163;BME280;3946;48.958;8.284;2023-04-25T08:21:31;100024.09;;;9.00;100.00
163;BME280;3946;48.958;8.284;2023-04-25T08:24:19;100033.38;;;8.90;100.00
163;BME280;3946;48.958;8.284;2023-04-25T08:27:05;100036.28;;;8.98;100.00
163;BME280;3946;48.958;8.284;2023-04-25T08:29:50;100043.03;;;9.27;100.00
163;BME280;3946;48.958;8.284;2023-04-25T08:32:36;100040.78;;;9.23;100.00
163;BME280;3946;48.958;8.284;2023-04-25T08:35:36;100039.47;;;9.16;100.00
163;BME280;3946;48.958;8.284;2023-04-25T08:38:22;100047.81;;;9.06;100.00
163;BME280;3946;48.958;8.284;2023-04-25T08:41:07;100054.03;;;9.31;100.00
163;BME280;3946;48.958;8.284;2023-04-25T08:43:53;100056.13;;;9.38;100.00
163;BME280;3946;48.958;8.284;2023-04-25T08:46:41;100056.53;;;9.32;100.00
163;BME280;3946;48.958;8.284;2023-04-25T08:49:35;100060.06;;;9.44;100.00
163;BME280;3946;48.958;8.284;2023-04-25T08:52:21;100057.34;;;9.60;100.00
163;BME280;3946;48.958;8.284;2023-04-25T08:55:08;100060.13;;;9.57;100.00
163;BME280;3946;48.958;8.284;2023-04-25T08:57:55;100068.50;;;9.60;100.00
163;BME280;3946;48.958;8.284;2023-04-25T09:00:41;100069.06;;;9.65;100.00
163;BME280;3946;48.958;8.284;2023-04-25T09:03:26;100064.91;;;9.63;100.00
163;BME280;3946;48.958;8.284;2023-04-25T09:06:11;100075.44;;;9.60;100.00
163;BME280;3946;48.958;8.284;2023-04-25T09:09:00;100078.00;;;9.74;100.00
163;BME280;3946;48.958;8.284;2023-04-25T09:11:48;100089.88;;;10.03;100.00
163;BME280;3946;48.958;8.284;2023-04-25T09:14:33;100088.19;;;10.02;100.00
163;BME280;3946;48.958;8.284;2023-04-25T09:17:22;100087.22;;;9.91;100.00
163;BME280;3946;48.958;8.284;2023-04-25T09:20:12;100085.81;;;10.12;100.00
163;BME280;3946;48.958;8.284;2023-04-25T09:23:01;100089.31;;;10.50;100.00
163;BME280;3946;48.958;8.284;2023-04-25T09:25:48;100099.03;;;10.72;100.00
163;BME280;3946;48.958;8.284;2023-04-25T09:28:34;100092.25;;;11.08;100.00
163;BME280;3946;48.958;8.284;2023-04-25T09:31:22;100103.66;;;11.18;100.00
163;BME280;3946;48.958;8.284;2023-04-25T09:34:08;100112.78;;;11.11;100.00
163;BME280;3946;48.958;8.284;2023-04-25T09:37:02;100110.19;;;11.11;100.00
163;BME280;3946;48.958;8.284;2023-04-25T09:40:13;100115.56;;;11.08;100.00
163;BME280;3946;48.958;8.284;2023-04-25T09:43:10;100107.31;;;11.39;98.68
163;BME280;3946;48.958;8.284;2023-04-25T09:45:58;100115.81;;;11.41;96.61
163;BME280;3946;48.958;8.284;2023-04-25T09:48:47;100119.16;;;11.31;97.43
163;BME280;3946;48.958;8.284;2023-04-25T09:51:33;100121.38;;;11.11;96.09
163;BME280;3946;48.958;8.284;2023-04-25T09:54:19;100115.56;;;11.08;97.60
163;BME280;3946;48.958;8.284;2023-04-25T09:57:09;100135.09;;;10.75;99.89
163;BME280;3946;48.958;8.284;2023-04-25T09:59:56;100135.53;;;10.69;98.14
163;BME280;3946;48.958;8.284;2023-04-25T10:02:46;100141.13;;;10.38;99.20
163;BME280;3946;48.958;8.284;2023-04-25T10:05:46;100140.56;;;10.20;100.00
163;BME280;3946;48.958;8.284;2023-04-25T10:08:35;100147.94;;;10.12;100.00
163;BME280;3946;48.958;8.284;2023-04-25T10:11:21;100154.63;;;9.89;100.00
163;BME280;3946;48.958;8.284;2023-04-25T10:14:07;100162.19;;;9.65;100.00
163;BME280;3946;48.958;8.284;2023-04-25T10:16:52;100170.91;;;9.77;100.00
163;BME280;3946;48.958;8.284;2023-04-25T10:19:40;100172.53;;;9.65;100.00
163;BME280;3946;48.958;8.284;2023-04-25T10:22:26;100180.41;;;9.50;100.00
163;BME280;3946;48.958;8.284;2023-04-25T10:25:14;100175.34;;;9.34;100.00
163;BME280;3946;48.958;8.284;2023-04-25T10:27:59;100186.97;;;9.27;100.00
163;BME280;3946;48.958;8.284;2023-04-25T10:33:52;100195.94;;;9.35;100.00
163;BME280;3946;48.958;8.284;2023-04-25T10:36:39;100195.47;;;9.29;100.00
163;BME280;3946;48.958;8.284;2023-04-25T10:39:26;100204.81;;;9.31;100.00
163;BME280;3946;48.958;8.284;2023-04-25T10:42:11;100201.56;;;9.28;100.00
163;BME280;3946;48.958;8.284;2023-04-25T10:45:01;100205.00;;;9.14;100.00
163;BME280;3946;48.958;8.284;2023-04-25T10:47:46;100206.84;;;9.12;100.00
163;BME280;3946;48.958;8.284;2023-04-25T10:50:36;100204.25;;;9.12;100.00
163;BME280;3946;48.958;8.284;2023-04-25T10:53:23;100217.25;;;8.96;100.00
163;BME280;3946;48.958;8.284;2023-04-25T10:56:09;100216.44;;;9.10;100.00
163;BME280;3946;48.958;8.284;2023-04-25T10:59:05;100214.22;;;9.04;100.00
163;BME280;3946;48.958;8.284;2023-04-25T11:01:51;100217.03;;;8.71;100.00
163;BME280;3946;48.958;8.284;2023-04-25T11:04:36;100219.84;;;8.96;100.00
163;BME280;3946;48.958;8.284;2023-04-25T11:07:24;100230.81;;;8.86;100.00
163;BME280;3946;48.958;8.284;2023-04-25T11:10:12;100224.81;;;8.85;100.00
163;BME280;3946;48.958;8.284;2023-04-25T11:12:58;100230.69;;;8.73;100.00
163;BME280;3946;48.958;8.284;2023-04-25T11:15:44;100228.22;;;8.41;100.00
163;BME280;3946;48.958;8.284;2023-04-25T11:18:29;100234.16;;;8.58;100.00
163;BME280;3946;48.958;8.284;2023-04-25T11:21:16;100237.31;;;8.77;100.00
163;BME280;3946;48.958;8.284;2023-04-25T11:24:02;100231.38;;;8.91;100.00
163;BME280;3946;48.958;8.284;2023-04-25T11:26:48;100229.91;;;8.87;100.00
163;BME280;3946;48.958;8.284;2023-04-25T11:29:34;100234.38;;;8.69;100.00
163;BME280;3946;48.958;8.284;2023-04-25T11:32:20;100241.88;;;8.88;100.00
163;BME280;3946;48.958;8.284;2023-04-25T11:35:06;100238.56;;;8.86;100.00
163;BME280;3946;48.958;8.284;2023-04-25T11:37:51;100242.84;;;9.15;100.00
163;BME280;3946;48.958;8.284;2023-04-25T11:40:36;100242.09;;;9.13;100.00
163;BME280;3946;48.958;8.284;2023-04-25T11:43:23;100255.56;;;9.04;100.00
163;BME280;3946;48.958;8.284;2023-04-25T11:46:08;100249.53;;;8.75;100.00
163;BME280;3946;48.958;8.284;2023-04-25T11:48:53;100254.81;;;8.88;100.00
163;BME280;3946;48.958;8.284;2023-04-25T11:51:40;100254.56;;;9.21;100.00
163;BME280;3946;48.958;8.284;2023-04-25T11:54:27;100256.00;;;8.96;100.00
163;BME280;3946;48.958;8.284;2023-04-25T11:57:12;100268.16;;;8.80;100.00
163;BME280;3946;48.958;8.284;2023-04-25T12:00:05;100274.00;;;8.98;100.00
163;BME280;3946;48.958;8.284;2023-04-25T12:02:56;100275.25;;;9.06;100.00
163;BME280;3946;48.958;8.284;2023-04-25T12:05:42;100270.94;;;9.35;100.00
163;BME280;3946;48.958;8.284;2023-04-25T12:08:27;100267.25;;;9.25;100.00
163;BME280;3946;48.958;8.284;2023-04-25T12:11:20;100271.75;;;9.07;100.00
163;BME280;3946;48.958;8.284;2023-04-25T12:14:05;100275.09;;;9.24;100.00
163;BME280;3946;48.958;8.284;2023-04-25T12:16:51;100278.03;;;9.32;100.00
163;BME280;3946;48.958;8.284;2023-04-25T12:19:37;100269.25;;;9.20;100.00
163;BME280;3946;48.958;8.284;2023-04-25T12:22:24;100267.34;;;9.38;100.00
163;BME280;3946;48.958;8.284;2023-04-25T12:25:09;100270.38;;;9.73;100.00
163;BME280;3946;48.958;8.284;2023-04-25T12:27:54;100265.34;;;10.25;100.00
163;BME280;3946;48.958;8.284;2023-04-25T12:30:55;100257.91;;;10.60;100.00
163;BME280;3946;48.958;8.284;2023-04-25T12:33:43;100261.41;;;10.99;99.56
163;BME280;3946;48.958;8.284;2023-04-25T12:36:31;100261.19;;;11.14;100.00
163;BME280;3946;48.958;8.284;2023-04-25T12:39:17;100255.97;;;10.89;100.00
163;BME280;3946;48.958;8.284;2023-04-25T12:42:03;100259.22;;;10.93;100.00
163;BME280;3946;48.958;8.284;2023-04-25T12:44:49;100261.00;;;11.17;100.00
163;BME280;3946;48.958;8.284;2023-04-25T12:47:34;100256.53;;;11.07;100.00
163;BME280;3946;48.958;8.284;2023-04-25T12:50:21;100253.91;;;10.69;100.00
163;BME280;3946;48.958;8.284;2023-04-25T12:53:06;100259.09;;;10.42;100.00
163;BME280;3946;48.958;8.284;2023-04-25T12:55:51;100260.03;;;10.93;100.00
163;BME280;3946;48.958;8.284;2023-04-25T12:58:36;100257.88;;;11.12;98.58
163;BME280;3946;48.958;8.284;2023-04-25T13:01:21;100260.38;;;11.01;98.45
163;BME280;3946;48.958;8.284;2023-04-25T13:04:07;100255.19;;;11.01;97.86
163;BME280;3946;48.958;8.284;2023-04-25T13:06:53;100253.75;;;11.35;96.04
163;BME280;3946;48.958;8.284;2023-04-25T13:09:38;100253.81;;;11.46;95.46
163;BME280;3946;48.958;8.284;2023-04-25T13:12:23;100261.28;;;11.76;96.05
163;BME280;3946;48.958;8.284;2023-04-25T13:15:09;100253.69;;;11.61;94.98
163;BME280;3946;48.958;8.284;2023-04-25T13:17:54;100255.47;;;11.60;93.41
163;BME280;3946;48.958;8.284;2023-04-25T13:20:40;100251.53;;;12.04;93.26
163;BME280;3946;48.958;8.284;2023-04-25T13:23:27;100256.81;;;11.66;94.61
163;BME280;3946;48.958;8.284;2023-04-25T13:26:12;100253.28;;;11.79;96.16
163;BME280;3946;48.958;8.284;2023-04-25T13:28:57;100256.72;;;11.42;95.02
163;BME280;3946;48.958;8.284;2023-04-25T13:31:44;100253.59;;;11.62;94.43
163;BME280;3946;48.958;8.284;2023-04-25T13:34:29;100263.03;;;11.76;94.64
163;BME280;3946;48.958;8.284;2023-04-25T13:37:14;100261.34;;;13.05;91.81
163;BME280;3946;48.958;8.284;2023-04-25T13:40:02;100257.41;;;13.57;90.10
163;BME280;3946;48.958;8.284;2023-04-25T13:42:48;100236.41;;;13.92;85.19
163;BME280;3946;48.958;8.284;2023-04-25T13:45:34;100245.34;;;13.45;85.38
163;BME280;3946;48.958;8.284;2023-04-25T13:48:20;100242.97;;;13.53;83.87
163;BME280;3946;48.958;8.284;2023-04-25T13:51:06;100243.69;;;13.44;83.67
163;BME280;3946;48.958;8.284;2023-04-25T13:53:51;100235.88;;;13.21;81.60
163;BME280;3946;48.958;8.284;2023-04-25T13:56:38;100204.72;;;13.76;78.32
163;BME280;3946;48.958;8.284;2023-04-25T13:59:25;100230.06;;;13.74;79.75
163;BME280;3946;48.958;8.284;2023-04-25T14:02:11;100217.78;;;13.20;78.09
163;BME280;3946;48.958;8.284;2023-04-25T14:04:56;100251.09;;;12.69;82.36
163;BME280;3946;48.958;8.284;2023-04-25T14:07:41;100220.91;;;12.79;79.88
163;BME280;3946;48.958;8.284;2023-04-25T14:10:26;100218.81;;;13.06;79.18
163;BME280;3946;48.958;8.284;2023-04-25T14:13:13;100157.19;;;14.26;73.70
163;BME280;3946;48.958;8.284;2023-04-25T14:15:58;100196.59;;;14.44;75.82
163;BME280;3946;48.958;8.284;2023-04-25T14:18:44;100156.75;;;14.63;73.10
163;BME280;3946;48.958;8.284;2023-04-25T14:21:29;100153.25;;;14.00;72.67
163;BME280;3946;48.958;8.284;2023-04-25T14:24:16;100151.72;;;13.97;71.43
163;BME280;3946;48.958;8.284;2023-04-25T14:27:01;100172.72;;;13.85;72.89
163;BME280;3946;48.958;8.284;2023-04-25T14:29:47;100193.88;;;13.48;73.85
163;BME280;3946;48.958;8.284;2023-04-25T14:32:32;100213.06;;;13.47;75.23
163;BME280;3946;48.958;8.284;2023-04-25T14:35:17;100202.75;;;13.57;74.37
163;BME280;3946;48.958;8.284;2023-04-25T14:38:02;100226.00;;;13.03;76.51
163;BME280;3946;48.958;8.284;2023-04-25T14:40:49;100242.66;;;13.00;77.45
163;BME280;3946;48.958;8.284;2023-04-25T14:43:34;100231.22;;;12.56;76.85
163;BME280;3946;48.958;8.284;2023-04-25T14:46:22;100241.50;;;12.34;77.97
163;BME280;3946;48.958;8.284;2023-04-25T14:49:08;100230.69;;;12.75;77.39
163;BME280;3946;48.958;8.284;2023-04-25T14:51:54;100244.50;;;12.41;79.01
163;BME280;3946;48.958;8.284;2023-04-25T14:54:39;100272.06;;;11.83;81.05
163;BME280;3946;48.958;8.284;2023-04-25T14:57:24;100250.53;;;11.94;81.43
163;BME280;3946;48.958;8.284;2023-04-25T15:00:10;100271.72;;;11.75;83.22
163;BME280;3946;48.958;8.284;2023-04-25T15:03:00;100272.28;;;11.67;85.18
163;BME280;3946;48.958;8.284;2023-04-25T15:05:45;100263.06;;;11.50;83.89
163;BME280;3946;48.958;8.284;2023-04-25T15:08:30;100273.69;;;11.71;84.52
163;BME280;3946;48.958;8.284;2023-04-25T15:11:15;100279.25;;;11.29;86.75
163;BME280;3946;48.958;8.284;2023-04-25T15:14:00;100285.16;;;11.31;88.58
163;BME280;3946;48.958;8.284;2023-04-25T15:16:45;100289.28;;;11.20;89.48
163;BME280;3946;48.958;8.284;2023-04-25T15:19:31;100290.75;;;11.25;90.50
163;BME280;3946;48.958;8.284;2023-04-25T15:22:16;100302.59;;;11.03;90.30
163;BME280;3946;48.958;8.284;2023-04-25T15:25:01;100315.78;;;10.46;92.73